EGHI/SOU METAR and TAF weather

Enter ICAO airport designator
Station Type Date Time Source
EGHI METAR 2019/06/18 17:20 UTC NOAA

EGHI 181720Z 04003KT 8000 FEW012 SCT032 16/13 Q1011


Station Type Date Time Source
EGHI Decoded METAR 2019/06/18 17:20 UTC NOAA

Southampton / Weather Centre, United Kingdom (EGHI) 50-54N 001-24W 0M
Jun 18, 2019 - 01:20 PM EDT / 2019.06.18 1720 UTC
Wind: from the NE (040 degrees) at 3 MPH (3 KT):0
Visibility: 4 mile(s):0
Sky conditions: partly cloudy
Temperature: 60 F (16 C)
Dew Point: 55 F (13 C)
Relative Humidity: 82%
Pressure (altimeter): 29.85 in. Hg (1011 hPa)
ob: EGHI 181720Z 04003KT 8000 FEW012 SCT032 16/13 Q1011
cycle: 17

Station Type Date Time Source
EGHI TAF 2016/03/02 12:00 UTC NOAA

TAF EGHI 021104Z 0212/0221 28015G25KT 9999 SCT020
TEMPO 0212/0221 29020G35KT PROB30
TEMPO 0212/0213 4000 SHRA BKN012CB
TEMPO 0218/0221 BKN014

Example: see airport list